Home   Weather   Township of Fairfield   Past weeks
Flag for USA

Past Weather in Township of Fairfield, Michigan, USA — Yesterday and Last 2 Weeks

Currently: 53 °F. Sunny. (Weather station: Toledo Suburban Airport, USA). See more current weather

Past Weather in Township of Fairfield — Graph

°F

Township of Fairfield Temperature Yesterday

Maximum temperature yesterday: 34 °F (at 2:15 pm)
Minimum temperature yesterday: 31 °F (at 10:35 pm)
Average temperature yesterday: 32 °F

High & Low Weather Summary for the Past Weeks

 TemperatureHumidityPressure
High52 °F (Feb 7, 12:55 pm)100% (Jan 25, 10:55 am)30.57 "Hg (Jan 25, 10:55 am)
Low4 °F (Jan 31, 7:55 am)37% (Feb 1, 3:55 pm)29.45 "Hg (Jan 25, 2:55 pm)
Average27 °F76%30.12 "Hg
* Reported Jan 23 12:35 pm — Feb 7 12:55 pm, Township of Fairfield. Weather by CustomWeather, © 2023

Note: Actual official high and low records may vary slightly from our data, if they occured in-between our weather recording intervals... More about our weather records

Township of Fairfield Weather History for the Previous 24 Hours

Scroll right to see more
 ConditionsComfort  
Time TempWeatherWind HumidityBarometerVisibility
12:55 pm
Tue, Feb 7
52 °FSunny.13 mph68%29.90 "Hg10 mi
12:35 pm51 °FSunny.12 mph66%29.92 "Hg10 mi
12:15 pm51 °FSunny.14 mph66%29.91 "Hg10 mi
11:35 am51 °FSunny.14 mph64%29.90 "Hg10 mi
11:15 am51 °FSunny.12 mph64%29.90 "Hg10 mi
10:55 am51 °FSunny.17 mph63%29.89 "Hg10 mi
10:35 am50 °FSunny.20 mph63%29.89 "Hg10 mi
10:15 am49 °FScattered clouds.14 mph62%29.88 "Hg10 mi
9:15 am45 °FScattered clouds.13 mph63%29.90 "Hg10 mi
8:55 am44 °FSunny.12 mph64%29.90 "Hg10 mi
8:35 am43 °FSunny.13 mph65%29.90 "Hg10 mi
8:15 am42 °FSunny.13 mph66%29.89 "Hg10 mi
7:55 am42 °FSunny.12 mph66%29.89 "Hg10 mi
7:15 am40 °FPartly cloudy.13 mph67%29.89 "Hg10 mi
6:55 am40 °FMostly cloudy.10 mph67%29.90 "Hg10 mi
6:35 am39 °FPartly cloudy.12 mph68%29.90 "Hg10 mi
6:15 am38 °FPartly cloudy.10 mph71%29.91 "Hg10 mi
5:55 am38 °FMostly cloudy.3 mph71%29.92 "Hg10 mi
5:35 am37 °FMostly cloudy.No wind73%29.93 "Hg10 mi
5:15 am36 °FMostly cloudy.No wind76%29.93 "Hg10 mi
4:55 am35 °FMostly cloudy.8 mph78%29.94 "Hg10 mi
4:35 am34 °FPartly cloudy.No wind81%29.95 "Hg10 mi
4:15 am33 °FPassing clouds.12 mph82%29.96 "Hg10 mi
3:35 am32 °FClear.10 mph86%29.99 "Hg10 mi
3:15 am31 °FClear.8 mph89%30.00 "Hg10 mi
2:35 am29 °FClear.5 mph91%30.05 "Hg7 mi
2:15 am29 °FClear.3 mph91%30.07 "Hg10 mi
1:55 am30 °FClear.No wind90%30.07 "Hg10 mi
12:55 am31 °FClear.7 mph88%30.08 "Hg10 mi
12:35 am31 °FClear.8 mph87%30.09 "Hg10 mi
12:15 am31 °FClear.8 mph88%30.09 "Hg10 mi
11:55 pm
Mon, Feb 6
31 °FClear.7 mph87%30.10 "Hg10 mi
11:35 pm31 °FClear.7 mph87%30.12 "Hg10 mi
11:15 pm31 °FClear.6 mph87%30.12 "Hg10 mi
10:55 pm31 °FClear.7 mph87%30.14 "Hg10 mi
10:35 pm31 °FClear.6 mph87%30.15 "Hg10 mi
10:15 pm31 °FClear.5 mph87%30.15 "Hg10 mi
9:55 pm31 °FClear.6 mph87%30.16 "Hg10 mi
9:35 pm31 °FClear.6 mph86%30.16 "Hg10 mi
9:15 pm32 °FClear.6 mph84%30.17 "Hg10 mi
8:35 pm32 °FClear.8 mph83%30.17 "Hg10 mi
8:15 pm32 °FClear.6 mph82%30.17 "Hg10 mi
7:55 pm32 °FClear.6 mph82%30.17 "Hg10 mi
6:35 pm32 °FClear.3 mph78%30.21 "Hg10 mi
6:15 pm32 °FPassing clouds.5 mph78%30.22 "Hg10 mi
5:55 pm32 °FScattered clouds.6 mph76%30.22 "Hg10 mi
5:15 pm33 °FScattered clouds.6 mph75%30.23 "Hg10 mi
4:55 pm34 °FSunny.6 mph73%30.23 "Hg10 mi
4:35 pm34 °FScattered clouds.6 mph73%30.23 "Hg10 mi
4:15 pm34 °FPartly sunny.5 mph72%30.24 "Hg10 mi
3:35 pm34 °FScattered clouds.7 mph73%30.24 "Hg10 mi
3:15 pm34 °FOvercast.7 mph72%30.24 "Hg10 mi
2:35 pm34 °FOvercast.6 mph72%30.25 "Hg10 mi
2:15 pm34 °FOvercast.No wind70%30.26 "Hg10 mi
Weather by CustomWeather, © 2023

See weather overview